PWSweather.com
Personal Weather Stations
Station Observations
KJ4AJP
Beautiful Downtown Gardner, Martin, TN 38237

Beautiful Downtown GardnerMartin, TN 38237

Lat: 36.358, Lon: -88.8994

Elevation: 384.3

Station Type: TP1080WC

http://weather.mambm.com/

High Low Average
Temperature 87.4°F30.8°C 67.5°F19.7°C 77.1°F25.1°C
Dew Point 81.4°F27.4°C 67.2°F19.6°C 75.0°F23.9°C
Winds 6.0 mph 9.7 kmh Calm Calm 2.0 mph S3.2 kmh S
Wind Gusts 11.4 mph18.3 kmh -- 5.0 mph8.0 kmh
Humidity 99% 80% 93%
Pressure 29.89 in1012.2 mb 29.78 in1008.5 mb -
Precipitation 0.53 in13.5 mm - -
Hour Temp Dew Point Humidity Winds Wind Gusts Pressure Precip Precip Rate Daily Precip Total
02:28 AM 68.7°F20.4°C 68.4°F20.2°C 99% 3.8 mph S6.1 kmh S 6.9 mph11.1 kmh 29.87 in1011.5 mb 0.09 in2.3 mm 0.19 in4.8 mm 0.50 in12.7 mm
02:37 AM 67.8°F19.9°C 67.5°F19.7°C 99% 3.8 mph SSE6.1 kmh SSE 8.3 mph13.4 kmh 29.82 in1009.8 mb 0.54 in13.7 mm 3.00 in76.2 mm 0.26 in6.6 mm
02:38 AM 67.8°F19.9°C 67.5°F19.7°C 99% 3.1 mph E5.0 kmh E 6.9 mph11.1 kmh 29.78 in1008.5 mb 0.14 in3.6 mm 0.00 in0.0 mm 0.30 in7.6 mm
02:45 AM 68.5°F20.3°C 68.3°F20.2°C 99% 3.1 mph SSE5.0 kmh SSE 7.6 mph12.2 kmh 29.86 in1011.2 mb 0.11 in2.8 mm 0.00 in0.0 mm 0.52 in13.2 mm
03:00 AM 68.4°F20.2°C 68.1°F20.1°C 99% 2.2 mph S3.5 kmh S 6.0 mph9.7 kmh 29.85 in1010.8 mb 0.07 in1.8 mm 0.00 in0.0 mm 0.52 in13.2 mm
03:15 AM 68.4°F20.2°C 68.1°F20.1°C 99% 4.5 mph SSW7.2 kmh SSW 8.3 mph13.4 kmh 29.86 in1011.2 mb 0.04 in1.0 mm 0.00 in0.0 mm 0.52 in13.2 mm
03:30 AM 68.2°F20.1°C 67.9°F19.9°C 99% 0.7 mph S1.1 kmh S 5.4 mph8.7 kmh 29.82 in1009.8 mb 0.02 in0.5 mm 0.00 in0.0 mm 0.52 in13.2 mm
03:45 AM 68.2°F20.1°C 67.9°F19.9°C 99% 0.7 mph S1.1 kmh S 6.9 mph11.1 kmh 29.83 in1010.2 mb 0.00 in0.0 mm 0.00 in0.0 mm 0.52 in13.2 mm
04:00 AM 68.0°F20.0°C 67.7°F19.8°C 99% 1.6 mph S2.6 kmh S 4.5 mph7.2 kmh 29.82 in1009.8 mb 0.00 in0.0 mm 0.00 in0.0 mm 0.52 in13.2 mm
04:15 AM 68.0°F20.0°C 67.7°F19.8°C 99% 0.7 mph SE1.1 kmh SE 3.8 mph6.1 kmh 29.81 in1009.5 mb 0.00 in0.0 mm 0.00 in0.0 mm 0.52 in13.2 mm
04:30 AM 67.8°F19.9°C 67.6°F19.8°C 99% Calm Calm 2.2 mph3.5 kmh 29.82 in1009.8 mb 0.00 in0.0 mm 0.00 in0.0 mm 0.52 in13.2 mm
04:45 AM 67.6°F19.8°C 67.4°F19.7°C 99% 0.7 mph S1.1 kmh S 1.6 mph2.6 kmh 29.83 in1010.2 mb 0.00 in0.0 mm 0.00 in0.0 mm 0.52 in13.2 mm
05:00 AM 67.5°F19.7°C 67.2°F19.6°C 99% Calm Calm 1.6 mph2.6 kmh 29.84 in1010.5 mb 0.00 in0.0 mm 0.00 in0.0 mm 0.52 in13.2 mm
05:15 AM 68.0°F20.0°C 67.7°F19.8°C 99% Calm Calm 3.1 mph5.0 kmh 29.85 in1010.8 mb 0.00 in0.0 mm 0.00 in0.0 mm 0.52 in13.2 mm
05:30 AM 68.0°F20.0°C 67.7°F19.8°C 99% Calm Calm 2.2 mph3.5 kmh 29.85 in1010.8 mb 0.00 in0.0 mm 0.00 in0.0 mm 0.52 in13.2 mm
05:45 AM 68.0°F20.0°C 67.7°F19.8°C 99% Calm Calm 1.6 mph2.6 kmh 29.84 in1010.5 mb 0.00 in0.0 mm 0.00 in0.0 mm 0.52 in13.2 mm
06:00 AM 68.0°F20.0°C 67.7°F19.8°C 99% Calm Calm 1.6 mph2.6 kmh 29.84 in1010.5 mb 0.00 in0.0 mm 0.00 in0.0 mm 0.52 in13.2 mm
06:15 AM 68.2°F20.1°C 67.9°F19.9°C 99% 1.6 mph SSE2.6 kmh SSE 2.2 mph3.5 kmh 29.85 in1010.8 mb 0.00 in0.0 mm 0.00 in0.0 mm 0.52 in13.2 mm
06:30 AM 68.4°F20.2°C 68.1°F20.1°C 99% Calm Calm 2.2 mph3.5 kmh 29.86 in1011.2 mb 0.00 in0.0 mm 0.00 in0.0 mm 0.52 in13.2 mm
06:45 AM 68.7°F20.4°C 68.5°F20.3°C 99% Calm Calm 1.6 mph2.6 kmh 29.86 in1011.2 mb 0.00 in0.0 mm 0.00 in0.0 mm 0.52 in13.2 mm
07:00 AM 69.6°F20.9°C 69.4°F20.8°C 99% 0.7 mph SW1.1 kmh SW 3.8 mph6.1 kmh 29.87 in1011.5 mb 0.00 in0.0 mm 0.00 in0.0 mm 0.52 in13.2 mm
07:15 AM 70.2°F21.2°C 69.9°F21.1°C 99% 0.7 mph SSW1.1 kmh SSW 3.8 mph6.1 kmh 29.87 in1011.5 mb 0.00 in0.0 mm 0.00 in0.0 mm 0.52 in13.2 mm
07:30 AM 70.7°F21.5°C 70.4°F21.3°C 99% Calm Calm 3.8 mph6.1 kmh 29.87 in1011.5 mb 0.00 in0.0 mm 0.00 in0.0 mm 0.52 in13.2 mm
07:45 AM 71.6°F22.0°C 71.3°F21.8°C 99% 1.6 mph S2.6 kmh S 6.0 mph9.7 kmh 29.87 in1011.5 mb 0.00 in0.0 mm 0.00 in0.0 mm 0.52 in13.2 mm
08:00 AM 72.5°F22.5°C 72.2°F22.3°C 99% 2.2 mph S3.5 kmh S 5.4 mph8.7 kmh 29.88 in1011.9 mb 0.00 in0.0 mm 0.00 in0.0 mm 0.52 in13.2 mm
08:15 AM 73.8°F23.2°C 73.5°F23.1°C 99% 2.2 mph S3.5 kmh S 5.4 mph8.7 kmh 29.87 in1011.5 mb 0.00 in0.0 mm 0.00 in0.0 mm 0.52 in13.2 mm
08:30 AM 76.1°F24.5°C 75.9°F24.4°C 99% 2.2 mph S3.5 kmh S 5.4 mph8.7 kmh 29.86 in1011.2 mb 0.00 in0.0 mm 0.00 in0.0 mm 0.52 in13.2 mm
08:45 AM 77.9°F25.5°C 77.7°F25.4°C 99% 2.2 mph SE3.5 kmh SE 4.5 mph7.2 kmh 29.87 in1011.5 mb 0.00 in0.0 mm 0.00 in0.0 mm 0.52 in13.2 mm
09:00 AM 79.7°F26.5°C 78.8°F26.0°C 97% 3.8 mph S6.1 kmh S 7.6 mph12.2 kmh 29.88 in1011.9 mb 0.00 in0.0 mm 0.00 in0.0 mm 0.52 in13.2 mm
09:15 AM 80.4°F26.9°C 78.3°F25.7°C 93% 6.0 mph S9.7 kmh S 9.8 mph15.8 kmh 29.88 in1011.9 mb 0.00 in0.0 mm 0.00 in0.0 mm 0.52 in13.2 mm
09:30 AM 81.1°F27.3°C 78.7°F25.9°C 92% 3.8 mph S6.1 kmh S 9.8 mph15.8 kmh 29.88 in1011.9 mb 0.00 in0.0 mm 0.00 in0.0 mm 0.52 in13.2 mm
09:45 AM 81.9°F27.7°C 79.0°F26.1°C 91% 3.8 mph S6.1 kmh S 8.3 mph13.4 kmh 29.88 in1011.9 mb 0.00 in0.0 mm 0.00 in0.0 mm 0.52 in13.2 mm
10:00 AM 81.7°F27.6°C 78.9°F26.1°C 91% 1.6 mph S2.6 kmh S 7.6 mph12.2 kmh 29.88 in1011.9 mb 0.00 in0.0 mm 0.00 in0.0 mm 0.52 in13.2 mm
10:15 AM 81.5°F27.5°C 78.4°F25.8°C 90% 2.2 mph SSE3.5 kmh SSE 7.6 mph12.2 kmh 29.88 in1011.9 mb 0.00 in0.0 mm 0.00 in0.0 mm 0.52 in13.2 mm
10:30 AM 81.5°F27.5°C 78.4°F25.8°C 90% 2.2 mph SSE3.5 kmh SSE 8.3 mph13.4 kmh 29.89 in1012.2 mb 0.00 in0.0 mm 0.00 in0.0 mm 0.52 in13.2 mm
10:45 AM 81.9°F27.7°C 78.0°F25.6°C 88% 2.2 mph S3.5 kmh S 9.2 mph14.8 kmh 29.88 in1011.9 mb 0.00 in0.0 mm 0.00 in0.0 mm 0.52 in13.2 mm
11:00 AM 82.4°F28.0°C 78.2°F25.7°C 87% 3.1 mph S5.0 kmh S 11.4 mph18.3 kmh 29.88 in1011.9 mb 0.00 in0.0 mm 0.00 in0.0 mm 0.52 in13.2 mm
11:15 AM 82.2°F27.9°C 78.0°F25.6°C 87% 2.2 mph SSW3.5 kmh SSW 7.6 mph12.2 kmh 29.88 in1011.9 mb 0.00 in0.0 mm 0.00 in0.0 mm 0.52 in13.2 mm
11:30 AM 81.7°F27.6°C 78.2°F25.7°C 89% 3.8 mph S6.1 kmh S 7.6 mph12.2 kmh 29.88 in1011.9 mb 0.01 in0.3 mm 0.04 in1.0 mm 0.53 in13.5 mm
11:45 AM 81.7°F27.6°C 78.2°F25.7°C 89% 3.1 mph S5.0 kmh S 8.3 mph13.4 kmh 29.88 in1011.9 mb 0.01 in0.3 mm 0.00 in0.0 mm 0.53 in13.5 mm
12:00 PM 81.3°F27.4°C 77.8°F25.4°C 89% 1.6 mph SW2.6 kmh SW 6.9 mph11.1 kmh 29.88 in1011.9 mb 0.01 in0.3 mm 0.00 in0.0 mm 0.53 in13.5 mm
12:15 PM 81.0°F27.2°C 77.5°F25.3°C 89% 4.5 mph SW7.2 kmh SW 8.3 mph13.4 kmh 29.88 in1011.9 mb 0.01 in0.3 mm 0.00 in0.0 mm 0.53 in13.5 mm
12:30 PM 80.6°F27.0°C 77.5°F25.3°C 90% 2.2 mph SW3.5 kmh SW 9.2 mph14.8 kmh 29.88 in1011.9 mb 0.00 in0.0 mm 0.00 in0.0 mm 0.53 in13.5 mm
12:45 PM 80.4°F26.9°C 77.3°F25.2°C 90% 2.2 mph SSW3.5 kmh SSW 10.7 mph17.2 kmh 29.88 in1011.9 mb 0.00 in0.0 mm 0.00 in0.0 mm 0.53 in13.5 mm
01:00 PM 81.5°F27.5°C 78.0°F25.6°C 89% 4.5 mph SW7.2 kmh SW 9.8 mph15.8 kmh 29.88 in1011.9 mb 0.00 in0.0 mm 0.00 in0.0 mm 0.53 in13.5 mm
01:15 PM 82.9°F28.3°C 79.4°F26.3°C 89% 3.1 mph S5.0 kmh S 8.3 mph13.4 kmh 29.88 in1011.9 mb 0.00 in0.0 mm 0.00 in0.0 mm 0.53 in13.5 mm
01:30 PM 83.8°F28.8°C 79.6°F26.4°C 87% 3.1 mph SW5.0 kmh SW 6.0 mph9.7 kmh 29.87 in1011.5 mb 0.00 in0.0 mm 0.00 in0.0 mm 0.53 in13.5 mm
01:45 PM 84.6°F29.2°C 80.3°F26.8°C 87% 2.2 mph S3.5 kmh S 7.6 mph12.2 kmh 29.87 in1011.5 mb 0.00 in0.0 mm 0.00 in0.0 mm 0.53 in13.5 mm
02:00 PM 85.8°F29.9°C 80.9°F27.2°C 85% 1.6 mph SSW2.6 kmh SSW 6.0 mph9.7 kmh 29.86 in1011.2 mb 0.00 in0.0 mm 0.00 in0.0 mm 0.53 in13.5 mm
02:15 PM 86.0°F30.0°C 80.3°F26.8°C 83% 2.2 mph S3.5 kmh S 8.3 mph13.4 kmh 29.85 in1010.8 mb 0.00 in0.0 mm 0.00 in0.0 mm 0.53 in13.5 mm
02:30 PM 86.4°F30.2°C 80.7°F27.1°C 83% 3.8 mph SSW6.1 kmh SSW 6.0 mph9.7 kmh 29.85 in1010.8 mb 0.00 in0.0 mm 0.00 in0.0 mm 0.53 in13.5 mm
02:45 PM 86.2°F30.1°C 80.5°F26.9°C 83% 2.2 mph SW3.5 kmh SW 9.2 mph14.8 kmh 29.85 in1010.8 mb 0.00 in0.0 mm 0.00 in0.0 mm 0.53 in13.5 mm
03:00 PM 85.8°F29.9°C 80.1°F26.7°C 83% 3.1 mph SSW5.0 kmh SSW 6.9 mph11.1 kmh 29.86 in1011.2 mb 0.00 in0.0 mm 0.00 in0.0 mm 0.53 in13.5 mm
03:15 PM 86.5°F30.3°C 81.2°F27.3°C 84% 3.1 mph WSW5.0 kmh WSW 6.9 mph11.1 kmh 29.85 in1010.8 mb 0.00 in0.0 mm 0.00 in0.0 mm 0.53 in13.5 mm
03:30 PM 87.1°F30.6°C 81.4°F27.4°C 83% 1.6 mph SSW2.6 kmh SSW 6.0 mph9.7 kmh 29.85 in1010.8 mb 0.00 in0.0 mm 0.00 in0.0 mm 0.53 in13.5 mm
03:45 PM 87.1°F30.6°C 81.0°F27.2°C 82% 3.1 mph SSW5.0 kmh SSW 6.0 mph9.7 kmh 29.84 in1010.5 mb 0.00 in0.0 mm 0.00 in0.0 mm 0.53 in13.5 mm
04:00 PM 87.4°F30.8°C 81.0°F27.2°C 81% 3.1 mph SW5.0 kmh SW 4.5 mph7.2 kmh 29.84 in1010.5 mb 0.00 in0.0 mm 0.00 in0.0 mm 0.53 in13.5 mm
04:15 PM 87.4°F30.8°C 81.0°F27.2°C 81% Calm Calm 3.8 mph6.1 kmh 29.84 in1010.5 mb 0.00 in0.0 mm 0.00 in0.0 mm 0.53 in13.5 mm
04:30 PM 86.9°F30.5°C 80.1°F26.7°C 80% 3.8 mph SW6.1 kmh SW 5.4 mph8.7 kmh 29.85 in1010.8 mb 0.00 in0.0 mm 0.00 in0.0 mm 0.53 in13.5 mm
04:45 PM 85.6°F29.8°C 79.6°F26.4°C 82% 3.1 mph SSW5.0 kmh SSW 5.4 mph8.7 kmh 29.84 in1010.5 mb 0.00 in0.0 mm 0.00 in0.0 mm 0.53 in13.5 mm
05:00 PM 85.1°F29.5°C 79.8°F26.6°C 84% 3.8 mph SSE6.1 kmh SSE 5.4 mph8.7 kmh 29.83 in1010.2 mb 0.00 in0.0 mm 0.00 in0.0 mm 0.53 in13.5 mm
05:15 PM 84.4°F29.1°C 79.5°F26.4°C 85% Calm Calm 3.1 mph5.0 kmh 29.83 in1010.2 mb 0.00 in0.0 mm 0.00 in0.0 mm 0.53 in13.5 mm
05:30 PM 84.0°F28.9°C 79.5°F26.4°C 86% 0.7 mph S1.1 kmh S 3.8 mph6.1 kmh 29.82 in1009.8 mb 0.00 in0.0 mm 0.00 in0.0 mm 0.53 in13.5 mm
05:45 PM 83.3°F28.5°C 79.1°F26.2°C 87% 1.6 mph S2.6 kmh S 4.5 mph7.2 kmh 29.82 in1009.8 mb 0.00 in0.0 mm 0.00 in0.0 mm 0.53 in13.5 mm
06:00 PM 82.8°F28.2°C 78.6°F25.9°C 87% 0.7 mph SSE1.1 kmh SSE 3.8 mph6.1 kmh 29.82 in1009.8 mb 0.00 in0.0 mm 0.00 in0.0 mm 0.53 in13.5 mm
06:15 PM 82.2°F27.9°C 78.4°F25.8°C 88% 1.6 mph S2.6 kmh S 3.8 mph6.1 kmh 29.83 in1010.2 mb 0.00 in0.0 mm 0.00 in0.0 mm 0.53 in13.5 mm
06:30 PM 81.7°F27.6°C 78.2°F25.7°C 89% Calm Calm 1.6 mph2.6 kmh 29.83 in1010.2 mb 0.00 in0.0 mm 0.00 in0.0 mm 0.53 in13.5 mm
06:45 PM 81.0°F27.2°C 78.2°F25.7°C 91% Calm Calm 0.7 mph1.1 kmh 29.83 in1010.2 mb 0.00 in0.0 mm 0.00 in0.0 mm 0.53 in13.5 mm
07:00 PM 80.1°F26.7°C 77.9°F25.5°C 93% Calm Calm 1.6 mph2.6 kmh 29.83 in1010.2 mb 0.00 in0.0 mm 0.00 in0.0 mm 0.53 in13.5 mm
07:15 PM 79.2°F26.2°C 78.0°F25.6°C 96% Calm Calm 2.2 mph3.5 kmh 29.84 in1010.5 mb 0.00 in0.0 mm 0.00 in0.0 mm 0.53 in13.5 mm
07:30 PM 78.3°F25.7°C 77.4°F25.2°C 97% Calm Calm 1.6 mph2.6 kmh 29.83 in1010.2 mb 0.00 in0.0 mm 0.00 in0.0 mm 0.53 in13.5 mm
07:45 PM 77.5°F25.3°C 77.3°F25.2°C 99% Calm Calm 1.6 mph2.6 kmh 29.83 in1010.2 mb 0.00 in0.0 mm 0.00 in0.0 mm 0.53 in13.5 mm
08:00 PM 77.2°F25.1°C 76.9°F24.9°C 99% 0.7 mph N1.1 kmh N 1.6 mph2.6 kmh 29.84 in1010.5 mb 0.00 in0.0 mm 0.00 in0.0 mm 0.53 in13.5 mm
08:15 PM 76.5°F24.7°C 76.2°F24.6°C 99% 0.7 mph N1.1 kmh N 1.6 mph2.6 kmh 29.83 in1010.2 mb 0.00 in0.0 mm 0.00 in0.0 mm 0.53 in13.5 mm
08:30 PM 75.9°F24.4°C 75.7°F24.3°C 99% Calm Calm 0.7 mph1.1 kmh 29.85 in1010.8 mb 0.00 in0.0 mm 0.00 in0.0 mm 0.53 in13.5 mm
08:45 PM 75.6°F24.2°C 75.3°F24.1°C 99% Calm Calm -- 29.86 in1011.2 mb 0.00 in0.0 mm 0.00 in0.0 mm 0.53 in13.5 mm
09:00 PM 75.0°F23.9°C 74.8°F23.8°C 99% Calm Calm 0.7 mph1.1 kmh 29.86 in1011.2 mb 0.00 in0.0 mm 0.00 in0.0 mm 0.53 in13.5 mm
09:15 PM 74.7°F23.7°C 74.4°F23.6°C 99% Calm Calm 0.7 mph1.1 kmh 29.87 in1011.5 mb 0.00 in0.0 mm 0.00 in0.0 mm 0.53 in13.5 mm
09:30 PM 74.3°F23.5°C 74.1°F23.4°C 99% Calm Calm 0.7 mph1.1 kmh 29.86 in1011.2 mb 0.00 in0.0 mm 0.00 in0.0 mm 0.53 in13.5 mm
09:45 PM 74.1°F23.4°C 73.9°F23.3°C 99% Calm Calm 0.7 mph1.1 kmh 29.86 in1011.2 mb 0.00 in0.0 mm 0.00 in0.0 mm 0.53 in13.5 mm
10:00 PM 73.8°F23.2°C 73.5°F23.1°C 99% Calm Calm -- 29.87 in1011.5 mb 0.00 in0.0 mm 0.00 in0.0 mm 0.53 in13.5 mm
10:15 PM 73.4°F23.0°C 73.2°F22.9°C 99% Calm Calm 1.6 mph2.6 kmh 29.86 in1011.2 mb 0.00 in0.0 mm 0.00 in0.0 mm 0.53 in13.5 mm
10:30 PM 73.4°F23.0°C 73.2°F22.9°C 99% 0.7 mph SSW1.1 kmh SSW 2.2 mph3.5 kmh 29.86 in1011.2 mb 0.00 in0.0 mm 0.00 in0.0 mm 0.53 in13.5 mm
10:45 PM 73.6°F23.1°C 73.3°F22.9°C 99% Calm Calm 3.8 mph6.1 kmh 29.86 in1011.2 mb 0.00 in0.0 mm 0.00 in0.0 mm 0.53 in13.5 mm
11:00 PM 73.4°F23.0°C 73.2°F22.9°C 99% 0.7 mph SE1.1 kmh SE 1.6 mph2.6 kmh 29.85 in1010.8 mb 0.00 in0.0 mm 0.00 in0.0 mm 0.55 in14.0 mm
11:15 PM 73.0°F22.8°C 72.8°F22.7°C 99% Calm Calm 1.6 mph2.6 kmh 29.85 in1010.8 mb 0.00 in0.0 mm 0.00 in0.0 mm 0.55 in14.0 mm
11:30 PM 72.7°F22.6°C 72.4°F22.4°C 99% Calm Calm 1.6 mph2.6 kmh 29.83 in1010.2 mb 0.00 in0.0 mm 0.00 in0.0 mm 0.55 in14.0 mm
11:45 PM 72.5°F22.5°C 72.2°F22.3°C 99% Calm Calm 0.7 mph1.1 kmh 29.83 in1010.2 mb 0.00 in0.0 mm 0.00 in0.0 mm 0.55 in14.0 mm